Weather at Rivne International Airport

Public forecast

Using degrees Celsius for public forecast. Weather courtesy of forecast.io.

Current aviation weather report (METAR) for Rivne International Airport

Retrieved 2021/06/23 12:00 UTC (27 minutes ago):

UKLR 231200Z 11004MPS 060V160 CAVOK 33/15 Q1016 R11/090070 NOSIG

Aviation forecast (TAF) for Rivne International Airport

Forecast is more than 12 hours old.

Retrieved 2019/08/16 12:15 UTC (2 years ago):

TAF TAF UKLR 161105Z 1612/1821 35003MPS 9999 BKN020 SCT023CB